sensor_id;sensor_type;location;lat;lon;timestamp;P1;durP1;ratioP1;P2;durP2;ratioP2
48881;SDS011;57063;51.406;-2.402;2024-02-04T00:02:01;4.25;;;1.70;;
48881;SDS011;57063;51.406;-2.402;2024-02-04T00:04:28;8.95;;;2.83;;
48881;SDS011;57063;51.406;-2.402;2024-02-04T00:06:53;5.68;;;1.63;;
48881;SDS011;57063;51.406;-2.402;2024-02-04T00:09:18;9.57;;;2.20;;
48881;SDS011;57063;51.406;-2.402;2024-02-04T00:11:44;6.70;;;2.15;;
48881;SDS011;57063;51.406;-2.402;2024-02-04T00:14:09;6.80;;;2.55;;
48881;SDS011;57063;51.406;-2.402;2024-02-04T00:16:35;8.85;;;2.83;;
48881;SDS011;57063;51.406;-2.402;2024-02-04T00:19:00;10.20;;;2.50;;
48881;SDS011;57063;51.406;-2.402;2024-02-04T00:21:25;7.78;;;2.90;;
48881;SDS011;57063;51.406;-2.402;2024-02-04T00:23:51;8.98;;;3.08;;
48881;SDS011;57063;51.406;-2.402;2024-02-04T00:26:16;13.95;;;3.70;;
48881;SDS011;57063;51.406;-2.402;2024-02-04T00:28:42;11.60;;;4.32;;
48881;SDS011;57063;51.406;-2.402;2024-02-04T00:31:08;12.13;;;3.42;;
48881;SDS011;57063;51.406;-2.402;2024-02-04T00:33:33;7.15;;;3.20;;
48881;SDS011;57063;51.406;-2.402;2024-02-04T00:35:59;10.15;;;2.83;;
48881;SDS011;57063;51.406;-2.402;2024-02-04T00:38:24;9.57;;;3.63;;
48881;SDS011;57063;51.406;-2.402;2024-02-04T00:40:50;8.63;;;3.10;;
48881;SDS011;57063;51.406;-2.402;2024-02-04T00:43:17;8.52;;;2.50;;
48881;SDS011;57063;51.406;-2.402;2024-02-04T00:45:42;7.25;;;2.03;;
48881;SDS011;57063;51.406;-2.402;2024-02-04T00:48:08;6.90;;;2.22;;
48881;SDS011;57063;51.406;-2.402;2024-02-04T00:50:33;6.93;;;1.92;;
48881;SDS011;57063;51.406;-2.402;2024-02-04T00:52:58;3.20;;;1.88;;
48881;SDS011;57063;51.406;-2.402;2024-02-04T00:55:24;9.05;;;2.50;;
48881;SDS011;57063;51.406;-2.402;2024-02-04T00:57:49;11.35;;;2.50;;
48881;SDS011;57063;51.406;-2.402;2024-02-04T01:00:14;9.65;;;2.70;;
48881;SDS011;57063;51.406;-2.402;2024-02-04T01:02:40;11.77;;;2.28;;
48881;SDS011;57063;51.406;-2.402;2024-02-04T01:05:06;6.13;;;1.98;;
48881;SDS011;57063;51.406;-2.402;2024-02-04T01:07:32;7.47;;;1.60;;
48881;SDS011;57063;51.406;-2.402;2024-02-04T01:09:58;5.25;;;1.88;;
48881;SDS011;57063;51.406;-2.402;2024-02-04T01:12:23;4.55;;;1.60;;
48881;SDS011;57063;51.406;-2.402;2024-02-04T01:14:48;6.78;;;3.78;;
48881;SDS011;57063;51.406;-2.402;2024-02-04T01:17:14;10.65;;;2.13;;
48881;SDS011;57063;51.406;-2.402;2024-02-04T01:19:39;6.20;;;2.00;;
48881;SDS011;57063;51.406;-2.402;2024-02-04T01:22:04;6.95;;;2.50;;
48881;SDS011;57063;51.406;-2.402;2024-02-04T01:24:30;6.00;;;1.90;;
48881;SDS011;57063;51.406;-2.402;2024-02-04T01:26:56;6.78;;;1.88;;
48881;SDS011;57063;51.406;-2.402;2024-02-04T01:29:22;8.07;;;1.73;;
48881;SDS011;57063;51.406;-2.402;2024-02-04T01:31:47;10.35;;;2.60;;
48881;SDS011;57063;51.406;-2.402;2024-02-04T01:34:12;8.65;;;2.42;;
48881;SDS011;57063;51.406;-2.402;2024-02-04T01:36:38;9.02;;;2.08;;
48881;SDS011;57063;51.406;-2.402;2024-02-04T01:39:03;6.63;;;2.20;;
48881;SDS011;57063;51.406;-2.402;2024-02-04T01:41:29;8.27;;;2.22;;
48881;SDS011;57063;51.406;-2.402;2024-02-04T01:43:55;9.65;;;2.60;;
48881;SDS011;57063;51.406;-2.402;2024-02-04T01:46:21;9.45;;;2.95;;
48881;SDS011;57063;51.406;-2.402;2024-02-04T01:48:47;9.18;;;2.45;;
48881;SDS011;57063;51.406;-2.402;2024-02-04T01:51:13;8.45;;;3.13;;
48881;SDS011;57063;51.406;-2.402;2024-02-04T01:53:42;6.47;;;2.33;;
48881;SDS011;57063;51.406;-2.402;2024-02-04T01:56:09;5.50;;;2.58;;
48881;SDS011;57063;51.406;-2.402;2024-02-04T01:58:36;13.00;;;2.60;;
48881;SDS011;57063;51.406;-2.402;2024-02-04T02:01:01;8.05;;;2.05;;
48881;SDS011;57063;51.406;-2.402;2024-02-04T02:03:27;10.57;;;2.70;;
48881;SDS011;57063;51.406;-2.402;2024-02-04T02:05:55;11.07;;;3.03;;
48881;SDS011;57063;51.406;-2.402;2024-02-04T02:08:20;5.07;;;1.80;;
48881;SDS011;57063;51.406;-2.402;2024-02-04T02:10:46;6.53;;;2.45;;
48881;SDS011;57063;51.406;-2.402;2024-02-04T02:13:17;7.07;;;2.13;;
48881;SDS011;57063;51.406;-2.402;2024-02-04T02:15:54;5.47;;;1.80;;
48881;SDS011;57063;51.406;-2.402;2024-02-04T02:18:31;7.50;;;2.33;;
48881;SDS011;57063;51.406;-2.402;2024-02-04T02:26:31;5.63;;;1.90;;
48881;SDS011;57063;51.406;-2.402;2024-02-04T02:28:57;6.35;;;1.77;;
48881;SDS011;57063;51.406;-2.402;2024-02-04T02:31:23;5.30;;;2.17;;
48881;SDS011;57063;51.406;-2.402;2024-02-04T02:33:48;7.43;;;1.77;;
48881;SDS011;57063;51.406;-2.402;2024-02-04T02:36:14;10.35;;;2.80;;
48881;SDS011;57063;51.406;-2.402;2024-02-04T02:38:48;5.68;;;1.45;;
48881;SDS011;57063;51.406;-2.402;2024-02-04T02:41:23;5.75;;;1.50;;
48881;SDS011;57063;51.406;-2.402;2024-02-04T02:43:54;8.77;;;1.30;;
48881;SDS011;57063;51.406;-2.402;2024-02-04T02:46:21;4.53;;;1.20;;
48881;SDS011;57063;51.406;-2.402;2024-02-04T02:48:48;6.75;;;1.30;;
48881;SDS011;57063;51.406;-2.402;2024-02-04T02:51:13;5.07;;;1.52;;
48881;SDS011;57063;51.406;-2.402;2024-02-04T02:53:38;2.47;;;0.90;;
48881;SDS011;57063;51.406;-2.402;2024-02-04T02:56:04;2.22;;;0.90;;
48881;SDS011;57063;51.406;-2.402;2024-02-04T02:58:30;3.90;;;1.25;;
48881;SDS011;57063;51.406;-2.402;2024-02-04T03:00:56;4.63;;;1.25;;
48881;SDS011;57063;51.406;-2.402;2024-02-04T03:03:21;4.10;;;1.20;;
48881;SDS011;57063;51.406;-2.402;2024-02-04T03:05:47;5.22;;;1.10;;
48881;SDS011;57063;51.406;-2.402;2024-02-04T03:08:12;5.07;;;1.00;;
48881;SDS011;57063;51.406;-2.402;2024-02-04T03:10:37;4.10;;;1.10;;
48881;SDS011;57063;51.406;-2.402;2024-02-04T03:13:03;1.67;;;0.80;;
48881;SDS011;57063;51.406;-2.402;2024-02-04T03:15:28;3.10;;;0.98;;
48881;SDS011;57063;51.406;-2.402;2024-02-04T03:17:53;2.33;;;1.10;;
48881;SDS011;57063;51.406;-2.402;2024-02-04T03:20:19;2.50;;;0.90;;
48881;SDS011;57063;51.406;-2.402;2024-02-04T03:22:45;4.45;;;0.80;;
48881;SDS011;57063;51.406;-2.402;2024-02-04T03:25:11;2.08;;;1.00;;
48881;SDS011;57063;51.406;-2.402;2024-02-04T03:27:36;1.33;;;0.80;;
48881;SDS011;57063;51.406;-2.402;2024-02-04T03:30:02;1.60;;;0.73;;
48881;SDS011;57063;51.406;-2.402;2024-02-04T03:32:28;3.20;;;0.70;;
48881;SDS011;57063;51.406;-2.402;2024-02-04T03:34:58;2.47;;;0.52;;
48881;SDS011;57063;51.406;-2.402;2024-02-04T03:37:24;2.88;;;0.65;;
48881;SDS011;57063;51.406;-2.402;2024-02-04T03:39:49;1.52;;;0.75;;
48881;SDS011;57063;51.406;-2.402;2024-02-04T03:42:15;1.92;;;0.75;;
48881;SDS011;57063;51.406;-2.402;2024-02-04T03:44:40;5.18;;;0.75;;
48881;SDS011;57063;51.406;-2.402;2024-02-04T03:47:05;2.53;;;0.80;;
48881;SDS011;57063;51.406;-2.402;2024-02-04T03:49:31;2.40;;;0.85;;
48881;SDS011;57063;51.406;-2.402;2024-02-04T03:51:56;4.78;;;0.90;;
48881;SDS011;57063;51.406;-2.402;2024-02-04T03:54:22;2.00;;;0.70;;
48881;SDS011;57063;51.406;-2.402;2024-02-04T03:56:47;10.35;;;1.13;;
48881;SDS011;57063;51.406;-2.402;2024-02-04T03:59:12;3.67;;;0.77;;
48881;SDS011;57063;51.406;-2.402;2024-02-04T04:01:38;2.80;;;0.70;;
48881;SDS011;57063;51.406;-2.402;2024-02-04T04:04:03;1.60;;;0.60;;
48881;SDS011;57063;51.406;-2.402;2024-02-04T04:06:28;3.88;;;0.85;;
48881;SDS011;57063;51.406;-2.402;2024-02-04T04:08:54;3.30;;;0.70;;
48881;SDS011;57063;51.406;-2.402;2024-02-04T04:11:19;2.95;;;0.60;;
48881;SDS011;57063;51.406;-2.402;2024-02-04T04:13:45;2.65;;;0.70;;
48881;SDS011;57063;51.406;-2.402;2024-02-04T04:16:10;3.60;;;0.77;;
48881;SDS011;57063;51.406;-2.402;2024-02-04T04:18:35;2.55;;;0.70;;
48881;SDS011;57063;51.406;-2.402;2024-02-04T04:21:01;7.40;;;1.38;;
48881;SDS011;57063;51.406;-2.402;2024-02-04T04:23:26;3.17;;;1.67;;
48881;SDS011;57063;51.406;-2.402;2024-02-04T04:25:51;5.95;;;1.00;;
48881;SDS011;57063;51.406;-2.402;2024-02-04T04:28:17;5.03;;;0.70;;
48881;SDS011;57063;51.406;-2.402;2024-02-04T04:30:42;2.83;;;0.80;;
48881;SDS011;57063;51.406;-2.402;2024-02-04T04:33:08;6.90;;;0.88;;
48881;SDS011;57063;51.406;-2.402;2024-02-04T04:35:33;3.15;;;0.93;;
48881;SDS011;57063;51.406;-2.402;2024-02-04T04:37:59;3.15;;;0.70;;
48881;SDS011;57063;51.406;-2.402;2024-02-04T04:40:25;10.38;;;1.10;;
48881;SDS011;57063;51.406;-2.402;2024-02-04T04:42:50;4.43;;;1.58;;
48881;SDS011;57063;51.406;-2.402;2024-02-04T04:45:16;4.68;;;0.95;;
48881;SDS011;57063;51.406;-2.402;2024-02-04T04:47:41;7.63;;;1.48;;
48881;SDS011;57063;51.406;-2.402;2024-02-04T04:50:06;2.80;;;0.63;;
48881;SDS011;57063;51.406;-2.402;2024-02-04T04:52:32;6.13;;;1.02;;
48881;SDS011;57063;51.406;-2.402;2024-02-04T04:54:58;4.90;;;0.57;;
48881;SDS011;57063;51.406;-2.402;2024-02-04T04:57:23;4.90;;;0.90;;
48881;SDS011;57063;51.406;-2.402;2024-02-04T04:59:48;1.45;;;0.50;;
48881;SDS011;57063;51.406;-2.402;2024-02-04T05:02:14;3.33;;;1.00;;
48881;SDS011;57063;51.406;-2.402;2024-02-04T05:04:42;4.88;;;1.38;;
48881;SDS011;57063;51.406;-2.402;2024-02-04T05:07:09;7.28;;;0.85;;
48881;SDS011;57063;51.406;-2.402;2024-02-04T05:09:35;5.22;;;1.00;;
48881;SDS011;57063;51.406;-2.402;2024-02-04T05:12:01;4.05;;;0.90;;
48881;SDS011;57063;51.406;-2.402;2024-02-04T05:14:27;3.53;;;1.05;;
48881;SDS011;57063;51.406;-2.402;2024-02-04T05:16:53;4.47;;;0.75;;
48881;SDS011;57063;51.406;-2.402;2024-02-04T05:19:18;4.47;;;0.70;;
48881;SDS011;57063;51.406;-2.402;2024-02-04T05:21:43;1.70;;;0.60;;
48881;SDS011;57063;51.406;-2.402;2024-02-04T05:24:08;4.40;;;0.88;;
48881;SDS011;57063;51.406;-2.402;2024-02-04T05:26:34;4.00;;;1.00;;
48881;SDS011;57063;51.406;-2.402;2024-02-04T05:28:59;4.60;;;1.30;;
48881;SDS011;57063;51.406;-2.402;2024-02-04T05:31:25;4.97;;;1.35;;
48881;SDS011;57063;51.406;-2.402;2024-02-04T05:33:51;5.28;;;1.98;;
48881;SDS011;57063;51.406;-2.402;2024-02-04T05:36:17;5.57;;;1.00;;
48881;SDS011;57063;51.406;-2.402;2024-02-04T05:38:43;3.60;;;0.93;;
48881;SDS011;57063;51.406;-2.402;2024-02-04T05:41:10;2.95;;;1.20;;
48881;SDS011;57063;51.406;-2.402;2024-02-04T05:43:35;6.45;;;0.95;;
48881;SDS011;57063;51.406;-2.402;2024-02-04T05:46:00;7.75;;;1.25;;
48881;SDS011;57063;51.406;-2.402;2024-02-04T05:48:26;4.82;;;0.80;;
48881;SDS011;57063;51.406;-2.402;2024-02-04T05:50:51;2.42;;;0.82;;
48881;SDS011;57063;51.406;-2.402;2024-02-04T05:53:16;5.75;;;1.27;;
48881;SDS011;57063;51.406;-2.402;2024-02-04T05:55:42;6.55;;;1.48;;
48881;SDS011;57063;51.406;-2.402;2024-02-04T05:58:07;5.38;;;1.25;;
48881;SDS011;57063;51.406;-2.402;2024-02-04T06:00:32;6.40;;;1.23;;
48881;SDS011;57063;51.406;-2.402;2024-02-04T06:02:58;6.82;;;1.40;;
48881;SDS011;57063;51.406;-2.402;2024-02-04T06:05:23;6.50;;;1.33;;
48881;SDS011;57063;51.406;-2.402;2024-02-04T06:07:48;6.82;;;1.88;;
48881;SDS011;57063;51.406;-2.402;2024-02-04T06:10:14;4.20;;;1.00;;
48881;SDS011;57063;51.406;-2.402;2024-02-04T06:12:39;4.10;;;1.00;;
48881;SDS011;57063;51.406;-2.402;2024-02-04T06:15:12;6.88;;;1.10;;
48881;SDS011;57063;51.406;-2.402;2024-02-04T06:17:38;5.13;;;0.82;;
48881;SDS011;57063;51.406;-2.402;2024-02-04T06:20:04;2.85;;;0.90;;
48881;SDS011;57063;51.406;-2.402;2024-02-04T06:22:30;3.58;;;1.00;;
48881;SDS011;57063;51.406;-2.402;2024-02-04T06:24:55;4.43;;;1.05;;
48881;SDS011;57063;51.406;-2.402;2024-02-04T06:27:21;4.45;;;0.77;;
48881;SDS011;57063;51.406;-2.402;2024-02-04T06:29:46;4.60;;;0.70;;
48881;SDS011;57063;51.406;-2.402;2024-02-04T06:32:12;3.63;;;0.90;;
48881;SDS011;57063;51.406;-2.402;2024-02-04T06:34:38;4.57;;;0.82;;
48881;SDS011;57063;51.406;-2.402;2024-02-04T06:37:04;4.85;;;2.25;;
48881;SDS011;57063;51.406;-2.402;2024-02-04T06:39:29;4.05;;;0.80;;
48881;SDS011;57063;51.406;-2.402;2024-02-04T06:41:54;3.05;;;0.63;;
48881;SDS011;57063;51.406;-2.402;2024-02-04T06:44:20;2.05;;;0.60;;
48881;SDS011;57063;51.406;-2.402;2024-02-04T06:46:45;1.58;;;0.52;;
48881;SDS011;57063;51.406;-2.402;2024-02-04T06:49:11;4.85;;;0.93;;
48881;SDS011;57063;51.406;-2.402;2024-02-04T06:51:43;4.70;;;0.77;;
48881;SDS011;57063;51.406;-2.402;2024-02-04T06:54:09;2.60;;;0.70;;
48881;SDS011;57063;51.406;-2.402;2024-02-04T06:56:34;1.80;;;1.15;;
48881;SDS011;57063;51.406;-2.402;2024-02-04T06:59:01;3.22;;;0.82;;
48881;SDS011;57063;51.406;-2.402;2024-02-04T07:01:27;5.70;;;1.05;;
48881;SDS011;57063;51.406;-2.402;2024-02-04T07:03:52;2.50;;;1.10;;
48881;SDS011;57063;51.406;-2.402;2024-02-04T07:06:17;6.50;;;2.15;;
48881;SDS011;57063;51.406;-2.402;2024-02-04T07:08:43;4.63;;;1.40;;
48881;SDS011;57063;51.406;-2.402;2024-02-04T07:11:08;5.30;;;0.88;;
48881;SDS011;57063;51.406;-2.402;2024-02-04T07:13:33;6.60;;;1.20;;
48881;SDS011;57063;51.406;-2.402;2024-02-04T07:15:59;12.57;;;2.58;;
48881;SDS011;57063;51.406;-2.402;2024-02-04T07:18:24;6.60;;;2.08;;
48881;SDS011;57063;51.406;-2.402;2024-02-04T07:20:50;5.97;;;1.17;;
48881;SDS011;57063;51.406;-2.402;2024-02-04T07:23:15;5.13;;;1.42;;
48881;SDS011;57063;51.406;-2.402;2024-02-04T07:25:40;6.63;;;1.58;;
48881;SDS011;57063;51.406;-2.402;2024-02-04T07:28:06;6.30;;;1.33;;
48881;SDS011;57063;51.406;-2.402;2024-02-04T07:30:31;6.25;;;1.50;;
48881;SDS011;57063;51.406;-2.402;2024-02-04T07:32:57;6.82;;;1.60;;
48881;SDS011;57063;51.406;-2.402;2024-02-04T07:35:23;9.63;;;2.45;;
48881;SDS011;57063;51.406;-2.402;2024-02-04T07:37:48;9.18;;;1.60;;
48881;SDS011;57063;51.406;-2.402;2024-02-04T07:40:14;7.00;;;1.60;;
48881;SDS011;57063;51.406;-2.402;2024-02-04T07:42:39;6.90;;;1.48;;
48881;SDS011;57063;51.406;-2.402;2024-02-04T07:45:04;9.40;;;2.35;;
48881;SDS011;57063;51.406;-2.402;2024-02-04T07:47:34;7.53;;;1.55;;
48881;SDS011;57063;51.406;-2.402;2024-02-04T07:49:59;5.88;;;1.30;;
48881;SDS011;57063;51.406;-2.402;2024-02-04T07:52:25;4.97;;;1.77;;
48881;SDS011;57063;51.406;-2.402;2024-02-04T07:54:50;11.38;;;3.85;;
48881;SDS011;57063;51.406;-2.402;2024-02-04T07:57:15;9.90;;;1.92;;
48881;SDS011;57063;51.406;-2.402;2024-02-04T07:59:41;6.82;;;2.00;;
48881;SDS011;57063;51.406;-2.402;2024-02-04T08:02:06;10.75;;;2.33;;
48881;SDS011;57063;51.406;-2.402;2024-02-04T08:04:32;10.43;;;1.88;;
48881;SDS011;57063;51.406;-2.402;2024-02-04T08:06:57;10.23;;;1.75;;
48881;SDS011;57063;51.406;-2.402;2024-02-04T08:09:23;7.15;;;1.60;;
48881;SDS011;57063;51.406;-2.402;2024-02-04T08:11:48;9.05;;;1.88;;
48881;SDS011;57063;51.406;-2.402;2024-02-04T08:14:13;10.10;;;1.33;;
48881;SDS011;57063;51.406;-2.402;2024-02-04T08:16:39;13.52;;;2.17;;
48881;SDS011;57063;51.406;-2.402;2024-02-04T08:19:05;18.42;;;2.17;;
48881;SDS011;57063;51.406;-2.402;2024-02-04T08:21:31;10.10;;;2.10;;
48881;SDS011;57063;51.406;-2.402;2024-02-04T08:23:57;11.43;;;2.25;;
48881;SDS011;57063;51.406;-2.402;2024-02-04T08:26:23;9.65;;;2.20;;
48881;SDS011;57063;51.406;-2.402;2024-02-04T08:28:48;11.00;;;1.95;;
48881;SDS011;57063;51.406;-2.402;2024-02-04T08:31:14;9.30;;;1.85;;
48881;SDS011;57063;51.406;-2.402;2024-02-04T08:33:39;11.82;;;2.00;;
48881;SDS011;57063;51.406;-2.402;2024-02-04T08:36:05;5.28;;;1.60;;
48881;SDS011;57063;51.406;-2.402;2024-02-04T08:38:31;10.52;;;1.70;;
48881;SDS011;57063;51.406;-2.402;2024-02-04T08:40:57;10.27;;;2.92;;
48881;SDS011;57063;51.406;-2.402;2024-02-04T08:43:22;9.63;;;2.17;;
48881;SDS011;57063;51.406;-2.402;2024-02-04T08:45:47;7.05;;;1.60;;
48881;SDS011;57063;51.406;-2.402;2024-02-04T08:48:13;15.85;;;2.85;;
48881;SDS011;57063;51.406;-2.402;2024-02-04T08:50:38;11.60;;;2.38;;
48881;SDS011;57063;51.406;-2.402;2024-02-04T08:53:04;8.63;;;1.95;;
48881;SDS011;57063;51.406;-2.402;2024-02-04T08:55:29;13.13;;;1.98;;
48881;SDS011;57063;51.406;-2.402;2024-02-04T08:57:54;11.45;;;2.60;;
48881;SDS011;57063;51.406;-2.402;2024-02-04T09:00:20;11.73;;;1.80;;
48881;SDS011;57063;51.406;-2.402;2024-02-04T09:02:46;6.22;;;1.65;;
48881;SDS011;57063;51.406;-2.402;2024-02-04T09:05:12;6.60;;;1.52;;
48881;SDS011;57063;51.406;-2.402;2024-02-04T09:07:37;10.65;;;1.67;;
48881;SDS011;57063;51.406;-2.402;2024-02-04T09:10:04;8.02;;;1.40;;
48881;SDS011;57063;51.406;-2.402;2024-02-04T09:12:29;5.18;;;1.25;;
48881;SDS011;57063;51.406;-2.402;2024-02-04T09:14:55;3.20;;;1.27;;
48881;SDS011;57063;51.406;-2.402;2024-02-04T09:17:20;6.35;;;1.48;;
48881;SDS011;57063;51.406;-2.402;2024-02-04T09:19:46;7.20;;;1.40;;
48881;SDS011;57063;51.406;-2.402;2024-02-04T09:22:11;5.82;;;1.67;;
48881;SDS011;57063;51.406;-2.402;2024-02-04T09:24:36;6.10;;;1.48;;
48881;SDS011;57063;51.406;-2.402;2024-02-04T09:27:02;5.75;;;1.45;;
48881;SDS011;57063;51.406;-2.402;2024-02-04T09:29:27;7.05;;;1.40;;
48881;SDS011;57063;51.406;-2.402;2024-02-04T09:31:53;10.02;;;1.75;;
48881;SDS011;57063;51.406;-2.402;2024-02-04T09:34:19;6.47;;;1.58;;
48881;SDS011;57063;51.406;-2.402;2024-02-04T09:36:44;9.25;;;1.90;;
48881;SDS011;57063;51.406;-2.402;2024-02-04T09:39:10;13.57;;;1.52;;
48881;SDS011;57063;51.406;-2.402;2024-02-04T09:41:35;6.30;;;1.88;;
48881;SDS011;57063;51.406;-2.402;2024-02-04T09:44:01;17.35;;;2.13;;
48881;SDS011;57063;51.406;-2.402;2024-02-04T09:46:28;13.07;;;2.00;;
48881;SDS011;57063;51.406;-2.402;2024-02-04T09:48:54;9.35;;;2.53;;
48881;SDS011;57063;51.406;-2.402;2024-02-04T09:51:21;13.23;;;2.05;;
48881;SDS011;57063;51.406;-2.402;2024-02-04T09:53:46;9.25;;;2.28;;
48881;SDS011;57063;51.406;-2.402;2024-02-04T09:56:17;9.20;;;2.35;;
48881;SDS011;57063;51.406;-2.402;2024-02-04T09:58:44;7.82;;;2.17;;
48881;SDS011;57063;51.406;-2.402;2024-02-04T10:01:10;12.88;;;2.53;;
48881;SDS011;57063;51.406;-2.402;2024-02-04T10:03:36;11.98;;;2.40;;
48881;SDS011;57063;51.406;-2.402;2024-02-04T10:06:02;11.38;;;1.92;;
48881;SDS011;57063;51.406;-2.402;2024-02-04T10:08:28;10.70;;;2.55;;
48881;SDS011;57063;51.406;-2.402;2024-02-04T10:10:53;10.93;;;2.40;;
48881;SDS011;57063;51.406;-2.402;2024-02-04T10:13:22;8.52;;;2.72;;
48881;SDS011;57063;51.406;-2.402;2024-02-04T10:15:49;10.35;;;3.47;;
48881;SDS011;57063;51.406;-2.402;2024-02-04T10:18:16;11.77;;;1.70;;
48881;SDS011;57063;51.406;-2.402;2024-02-04T10:20:42;9.88;;;2.67;;
48881;SDS011;57063;51.406;-2.402;2024-02-04T10:23:08;4.35;;;1.77;;
48881;SDS011;57063;51.406;-2.402;2024-02-04T10:25:33;11.25;;;1.77;;
48881;SDS011;57063;51.406;-2.402;2024-02-04T10:27:58;5.72;;;1.50;;
48881;SDS011;57063;51.406;-2.402;2024-02-04T10:30:24;7.40;;;1.25;;
48881;SDS011;57063;51.406;-2.402;2024-02-04T10:32:53;3.53;;;1.25;;
48881;SDS011;57063;51.406;-2.402;2024-02-04T10:35:22;5.32;;;1.33;;
48881;SDS011;57063;51.406;-2.402;2024-02-04T10:37:51;10.13;;;1.73;;
48881;SDS011;57063;51.406;-2.402;2024-02-04T10:40:17;5.97;;;1.33;;
48881;SDS011;57063;51.406;-2.402;2024-02-04T10:42:43;6.93;;;2.08;;
48881;SDS011;57063;51.406;-2.402;2024-02-04T10:45:10;4.53;;;1.17;;
48881;SDS011;57063;51.406;-2.402;2024-02-04T10:47:39;7.07;;;1.42;;
48881;SDS011;57063;51.406;-2.402;2024-02-04T10:50:05;6.07;;;1.23;;
48881;SDS011;57063;51.406;-2.402;2024-02-04T10:52:35;5.35;;;1.08;;
48881;SDS011;57063;51.406;-2.402;2024-02-04T10:55:10;14.00;;;1.85;;
48881;SDS011;57063;51.406;-2.402;2024-02-04T10:57:37;6.63;;;1.15;;
48881;SDS011;57063;51.406;-2.402;2024-02-04T11:00:03;4.28;;;1.25;;
48881;SDS011;57063;51.406;-2.402;2024-02-04T11:02:33;4.57;;;1.00;;
48881;SDS011;57063;51.406;-2.402;2024-02-04T11:05:00;4.85;;;1.02;;
48881;SDS011;57063;51.406;-2.402;2024-02-04T11:07:28;7.18;;;1.25;;
48881;SDS011;57063;51.406;-2.402;2024-02-04T11:09:57;4.78;;;0.95;;
48881;SDS011;57063;51.406;-2.402;2024-02-04T11:12:22;5.05;;;1.17;;
48881;SDS011;57063;51.406;-2.402;2024-02-04T11:14:50;2.90;;;0.77;;
48881;SDS011;57063;51.406;-2.402;2024-02-04T11:22:52;3.58;;;0.60;;
48881;SDS011;57063;51.406;-2.402;2024-02-04T11:28:10;4.45;;;1.27;;
48881;SDS011;57063;51.406;-2.402;2024-02-04T11:30:37;6.18;;;1.77;;
48881;SDS011;57063;51.406;-2.402;2024-02-04T11:33:03;1.85;;;0.45;;
48881;SDS011;57063;51.406;-2.402;2024-02-04T11:35:30;5.30;;;0.93;;
48881;SDS011;57063;51.406;-2.402;2024-02-04T11:37:58;3.53;;;1.10;;
48881;SDS011;57063;51.406;-2.402;2024-02-04T11:40:29;2.78;;;0.60;;
48881;SDS011;57063;51.406;-2.402;2024-02-04T11:43:11;8.65;;;0.90;;
48881;SDS011;57063;51.406;-2.402;2024-02-04T11:45:38;8.10;;;1.77;;
48881;SDS011;57063;51.406;-2.402;2024-02-04T11:48:06;7.03;;;1.02;;
48881;SDS011;57063;51.406;-2.402;2024-02-04T11:50:32;4.22;;;0.98;;
48881;SDS011;57063;51.406;-2.402;2024-02-04T11:53:01;4.97;;;0.80;;
48881;SDS011;57063;51.406;-2.402;2024-02-04T11:55:31;7.63;;;1.58;;
48881;SDS011;57063;51.406;-2.402;2024-02-04T11:57:57;3.38;;;0.90;;
48881;SDS011;57063;51.406;-2.402;2024-02-04T12:00:22;4.93;;;0.80;;
48881;SDS011;57063;51.406;-2.402;2024-02-04T12:02:48;5.78;;;1.10;;
48881;SDS011;57063;51.406;-2.402;2024-02-04T12:05:31;3.63;;;0.75;;
48881;SDS011;57063;51.406;-2.402;2024-02-04T12:07:59;5.22;;;1.05;;
48881;SDS011;57063;51.406;-2.402;2024-02-04T12:10:28;4.90;;;1.10;;
48881;SDS011;57063;51.406;-2.402;2024-02-04T12:12:55;7.05;;;1.30;;
48881;SDS011;57063;51.406;-2.402;2024-02-04T12:15:21;6.80;;;1.10;;
48881;SDS011;57063;51.406;-2.402;2024-02-04T12:17:46;4.75;;;1.10;;
48881;SDS011;57063;51.406;-2.402;2024-02-04T12:20:12;5.47;;;1.00;;
48881;SDS011;57063;51.406;-2.402;2024-02-04T12:22:37;8.52;;;1.60;;
48881;SDS011;57063;51.406;-2.402;2024-02-04T12:25:03;11.25;;;2.03;;
48881;SDS011;57063;51.406;-2.402;2024-02-04T12:27:29;8.10;;;1.42;;
48881;SDS011;57063;51.406;-2.402;2024-02-04T12:29:54;11.20;;;2.65;;
48881;SDS011;57063;51.406;-2.402;2024-02-04T12:32:20;8.20;;;1.25;;
48881;SDS011;57063;51.406;-2.402;2024-02-04T12:34:49;4.63;;;1.05;;
48881;SDS011;57063;51.406;-2.402;2024-02-04T12:37:19;6.57;;;1.30;;
48881;SDS011;57063;51.406;-2.402;2024-02-04T12:39:45;8.68;;;1.88;;
48881;SDS011;57063;51.406;-2.402;2024-02-04T12:42:10;7.85;;;1.48;;
48881;SDS011;57063;51.406;-2.402;2024-02-04T12:44:43;7.20;;;1.13;;
48881;SDS011;57063;51.406;-2.402;2024-02-04T12:47:09;9.40;;;1.60;;
48881;SDS011;57063;51.406;-2.402;2024-02-04T12:49:34;9.38;;;2.45;;
48881;SDS011;57063;51.406;-2.402;2024-02-04T12:52:06;4.60;;;1.38;;
48881;SDS011;57063;51.406;-2.402;2024-02-04T12:54:50;5.90;;;1.05;;
48881;SDS011;57063;51.406;-2.402;2024-02-04T12:57:21;5.53;;;1.33;;
48881;SDS011;57063;51.406;-2.402;2024-02-04T12:59:48;5.15;;;1.13;;
48881;SDS011;57063;51.406;-2.402;2024-02-04T13:02:13;5.75;;;1.50;;
48881;SDS011;57063;51.406;-2.402;2024-02-04T13:04:40;5.55;;;1.30;;
48881;SDS011;57063;51.406;-2.402;2024-02-04T13:07:10;4.03;;;1.30;;
48881;SDS011;57063;51.406;-2.402;2024-02-04T13:09:37;8.70;;;1.60;;
48881;SDS011;57063;51.406;-2.402;2024-02-04T13:12:04;5.30;;;1.25;;
48881;SDS011;57063;51.406;-2.402;2024-02-04T13:14:30;6.57;;;1.20;;
48881;SDS011;57063;51.406;-2.402;2024-02-04T13:16:57;9.07;;;1.40;;
48881;SDS011;57063;51.406;-2.402;2024-02-04T13:19:22;8.18;;;1.25;;
48881;SDS011;57063;51.406;-2.402;2024-02-04T13:21:48;7.65;;;1.77;;
48881;SDS011;57063;51.406;-2.402;2024-02-04T13:24:13;11.07;;;1.42;;
48881;SDS011;57063;51.406;-2.402;2024-02-04T13:26:39;7.75;;;1.77;;
48881;SDS011;57063;51.406;-2.402;2024-02-04T13:29:04;10.10;;;1.65;;
48881;SDS011;57063;51.406;-2.402;2024-02-04T13:31:30;5.35;;;1.02;;
48881;SDS011;57063;51.406;-2.402;2024-02-04T13:33:56;5.93;;;0.90;;
48881;SDS011;57063;51.406;-2.402;2024-02-04T13:36:22;9.73;;;1.63;;
48881;SDS011;57063;51.406;-2.402;2024-02-04T13:38:48;10.07;;;2.45;;
48881;SDS011;57063;51.406;-2.402;2024-02-04T13:41:14;9.82;;;2.42;;
48881;SDS011;57063;51.406;-2.402;2024-02-04T13:43:39;7.03;;;1.92;;
48881;SDS011;57063;51.406;-2.402;2024-02-04T13:46:05;5.93;;;1.63;;
48881;SDS011;57063;51.406;-2.402;2024-02-04T13:48:30;8.57;;;1.63;;
48881;SDS011;57063;51.406;-2.402;2024-02-04T13:50:55;8.13;;;1.70;;
48881;SDS011;57063;51.406;-2.402;2024-02-04T13:53:21;16.95;;;2.70;;
48881;SDS011;57063;51.406;-2.402;2024-02-04T13:55:48;17.67;;;3.80;;
48881;SDS011;57063;51.406;-2.402;2024-02-04T13:58:14;16.67;;;3.35;;
48881;SDS011;57063;51.406;-2.402;2024-02-04T14:00:39;20.38;;;3.80;;
48881;SDS011;57063;51.406;-2.402;2024-02-04T14:03:05;22.98;;;4.35;;
48881;SDS011;57063;51.406;-2.402;2024-02-04T14:05:31;27.02;;;6.47;;
48881;SDS011;57063;51.406;-2.402;2024-02-04T14:07:57;22.92;;;4.30;;
48881;SDS011;57063;51.406;-2.402;2024-02-04T14:10:22;25.00;;;3.97;;
48881;SDS011;57063;51.406;-2.402;2024-02-04T14:12:48;27.02;;;8.20;;
48881;SDS011;57063;51.406;-2.402;2024-02-04T14:15:13;28.35;;;5.75;;
48881;SDS011;57063;51.406;-2.402;2024-02-04T14:17:39;30.15;;;8.10;;
48881;SDS011;57063;51.406;-2.402;2024-02-04T14:20:06;43.05;;;11.57;;
48881;SDS011;57063;51.406;-2.402;2024-02-04T14:22:31;36.95;;;6.30;;
48881;SDS011;57063;51.406;-2.402;2024-02-04T14:24:57;45.88;;;8.02;;
48881;SDS011;57063;51.406;-2.402;2024-02-04T14:27:23;42.65;;;8.05;;
48881;SDS011;57063;51.406;-2.402;2024-02-04T14:29:48;29.25;;;6.22;;
48881;SDS011;57063;51.406;-2.402;2024-02-04T14:32:14;25.33;;;6.38;;
48881;SDS011;57063;51.406;-2.402;2024-02-04T14:34:39;37.63;;;8.15;;
48881;SDS011;57063;51.406;-2.402;2024-02-04T14:37:04;45.22;;;11.10;;
48881;SDS011;57063;51.406;-2.402;2024-02-04T14:39:30;37.95;;;9.57;;